Time;durP1;ratioP1;P1;durP2;ratioP2;P2;SDS_P1;SDS_P2;PMS_P1;PMS_P2;Temp;Humidity;BMP_temperature;BMP_pressure;BME280_temperature;BME280_humidity;BME280_pressure;Samples;Min_cycle;Max_cycle;Signal;HPM_P1;HPM_P2
2023/03/12 00:01:50;;;;;;;;;;;;;;;5.72;78.81;94371.66;5134731;27;1084;-60
2023/03/12 00:04:16;;;;;;;;;;;;;;;5.82;78.43;94376.88;5134497;27;1195;-60
2023/03/12 00:06:42;;;;;;;;;;;;;;;5.83;78.51;94379.38;5134572;27;1048;-60
2023/03/12 00:09:08;;;;;;;;;;;;;;;5.77;78.17;94380.00;5134444;27;1053;-60
2023/03/12 00:11:34;;;;;;;;;;;;;;;5.75;78.39;94389.94;5143106;27;1326;-60
2023/03/12 00:14:00;;;;;;;;;;;;;;;5.67;78.31;94400.44;5155140;27;1112;-60
2023/03/12 00:16:26;;;;;;;;;;;;;;;5.58;78.33;94394.22;5155272;27;1972;-60
2023/03/12 00:18:53;;;;;;;;;;;;;;;5.53;78.88;94401.78;5155107;27;1052;-60
2023/03/12 00:21:20;;;;;;;;;;;;;;;5.48;77.13;94398.72;5155300;27;988;-60
2023/03/12 00:23:47;;;;;;;;;;;;;;;5.38;78.21;94405.91;5155013;27;983;-60
2023/03/12 00:26:14;;;;;;;;;;;;;;;5.25;79.32;94401.81;5154947;27;1104;-60
2023/03/12 00:28:40;;;;;;;;;;;;;;;4.80;80.88;94404.31;5155090;27;957;-60
2023/03/12 00:31:14;;;;;;;;;;;;;;;4.66;80.96;94416.22;5136677;27;1084;-60
2023/03/12 00:33:40;;;;;;;;;;;;;;;4.47;81.23;94411.81;5153538;27;1011;-59
2023/03/12 00:36:06;;;;;;;;;;;;;;;4.37;82.02;94422.41;5153087;27;1909;-59
2023/03/12 00:38:32;;;;;;;;;;;;;;;3.83;82.09;94424.66;5135330;27;1020;-59
2023/03/12 00:40:58;;;;;;;;;;;;;;;3.69;82.76;94419.75;5153482;27;1084;-60
2023/03/12 00:43:25;;;;;;;;;;;;;;;3.66;82.54;94428.81;5153683;27;1038;-60
2023/03/12 00:45:51;;;;;;;;;;;;;;;3.91;81.30;94421.31;5153413;27;1080;-60
2023/03/12 00:48:17;;;;;;;;;;;;;;;4.06;79.82;94416.44;5153301;27;1049;-59
2023/03/12 00:50:43;;;;;;;;;;;;;;;4.11;81.31;94416.84;5153396;27;1041;-60
2023/03/12 00:53:09;;;;;;;;;;;;;;;4.00;81.83;94414.34;5153557;27;964;-60
2023/03/12 00:55:35;;;;;;;;;;;;;;;3.89;81.09;94413.53;5153134;27;1992;-59
2023/03/12 00:58:01;;;;;;;;;;;;;;;3.69;81.53;94412.66;5153534;27;952;-59
2023/03/12 01:00:27;;;;;;;;;;;;;;;3.57;82.34;94412.94;5153231;27;1035;-60
2023/03/12 01:02:53;;;;;;;;;;;;;;;3.13;81.86;94416.72;5153361;27;1000;-59
2023/03/12 01:05:19;;;;;;;;;;;;;;;2.89;82.57;94410.91;5153393;27;1051;-59
2023/03/12 01:07:45;;;;;;;;;;;;;;;2.82;83.80;94407.13;5153180;27;1123;-59
2023/03/12 01:10:12;;;;;;;;;;;;;;;3.18;82.34;94411.00;5153925;27;1053;-59
2023/03/12 01:12:38;;;;;;;;;;;;;;;3.46;80.49;94413.88;5139615;27;1239;-59
2023/03/12 01:15:04;;;;;;;;;;;;;;;3.55;80.37;94413.06;5136330;27;1917;-59
2023/03/12 01:17:30;;;;;;;;;;;;;;;3.28;80.76;94409.25;5136566;27;1041;-59
2023/03/12 01:19:57;;;;;;;;;;;;;;;2.80;82.48;94411.69;5136388;27;1236;-59
2023/03/12 01:22:23;;;;;;;;;;;;;;;2.82;83.39;94407.94;5136178;27;1053;-59
2023/03/12 01:24:49;;;;;;;;;;;;;;;3.28;81.05;94408.41;5136553;27;1068;-59
2023/03/12 01:27:15;;;;;;;;;;;;;;;3.50;78.27;94407.34;5136403;27;1081;-59
2023/03/12 01:29:41;;;;;;;;;;;;;;;3.85;73.74;94398.91;5136043;27;1107;-59
2023/03/12 01:32:07;;;;;;;;;;;;;;;4.09;72.18;94409.03;5136131;27;1100;-59
2023/03/12 01:34:34;;;;;;;;;;;;;;;4.11;71.98;94415.03;5136061;27;905;-59
2023/03/12 01:37:00;;;;;;;;;;;;;;;4.06;72.06;94405.84;5117748;27;1988;-59
2023/03/12 01:39:26;;;;;;;;;;;;;;;4.06;73.24;94409.34;5136393;27;1025;-59
2023/03/12 01:41:52;;;;;;;;;;;;;;;4.10;72.15;94417.84;5136128;27;996;-59
2023/03/12 01:44:18;;;;;;;;;;;;;;;3.87;72.62;94410.19;5135916;27;1039;-59
2023/03/12 01:46:45;;;;;;;;;;;;;;;3.68;75.11;94412.78;5135910;27;1203;-59
2023/03/12 01:49:20;;;;;;;;;;;;;;;3.66;74.76;94414.72;5117918;27;1040;-59
2023/03/12 01:51:49;;;;;;;;;;;;;;;3.38;76.44;94426.91;5117555;27;1047;-59
2023/03/12 01:54:33;;;;;;;;;;;;;;;3.24;78.34;94425.50;5135672;27;1045;-59
2023/03/12 01:57:01;;;;;;;;;;;;;;;3.22;79.04;94432.72;5135861;27;1991;-59
2023/03/12 01:59:31;;;;;;;;;;;;;;;3.52;75.55;94432.66;5135364;27;1104;-59
2023/03/12 02:01:58;;;;;;;;;;;;;;;3.64;76.73;94436.03;5117575;27;1024;-59
2023/03/12 02:04:25;;;;;;;;;;;;;;;3.63;76.71;94433.53;5135479;27;1124;-59
2023/03/12 02:06:57;;;;;;;;;;;;;;;3.04;77.14;94433.34;5117325;27;916;-59
2023/03/12 02:09:23;;;;;;;;;;;;;;;2.53;79.78;94428.94;5135503;27;1119;-59
2023/03/12 02:11:49;;;;;;;;;;;;;;;2.49;80.92;94430.16;5146689;27;1344;-59
2023/03/12 02:14:15;;;;;;;;;;;;;;;2.76;80.81;94432.25;5157217;27;1038;-59
2023/03/12 02:16:41;;;;;;;;;;;;;;;2.92;79.87;94432.63;5138787;27;1914;-59
2023/03/12 02:19:13;;;;;;;;;;;;;;;2.95;79.29;94426.22;5157585;27;1057;-58
2023/03/12 02:21:39;;;;;;;;;;;;;;;2.56;80.45;94422.56;5156718;27;987;-58
2023/03/12 02:24:11;;;;;;;;;;;;;;;2.28;82.38;94428.38;5157014;27;1048;-59
2023/03/12 02:26:38;;;;;;;;;;;;;;;2.32;82.23;94435.03;5157333;27;1031;-58
2023/03/12 02:29:04;;;;;;;;;;;;;;;2.53;80.97;94435.03;5157044;27;1045;-58
2023/03/12 02:31:37;;;;;;;;;;;;;;;2.67;80.39;94431.22;5157319;27;989;-59
2023/03/12 02:34:03;;;;;;;;;;;;;;;2.77;80.86;94444.50;5157174;27;1045;-58
2023/03/12 02:36:29;;;;;;;;;;;;;;;2.63;80.14;94442.19;5156853;27;2002;-58
2023/03/12 02:38:56;;;;;;;;;;;;;;;2.52;81.59;94449.22;5157099;27;1020;-59
2023/03/12 02:41:26;;;;;;;;;;;;;;;2.25;81.74;94446.25;5156865;27;1048;-59
2023/03/12 02:44:08;;;;;;;;;;;;;;;2.09;82.49;94444.88;5157284;27;1055;-59
2023/03/12 02:46:36;;;;;;;;;;;;;;;2.19;83.00;94457.31;5156967;27;1076;-59
2023/03/12 02:49:03;;;;;;;;;;;;;;;2.08;82.50;94471.38;5157075;27;960;-59
2023/03/12 02:51:29;;;;;;;;;;;;;;;1.95;82.79;94463.63;5156670;27;1052;-59
2023/03/12 02:53:55;;;;;;;;;;;;;;;2.18;82.72;94453.81;5138633;27;988;-59
2023/03/12 02:56:22;;;;;;;;;;;;;;;2.25;82.56;94457.63;5156425;27;1992;-59
2023/03/12 02:58:48;;;;;;;;;;;;;;;2.48;81.49;94468.88;5156792;27;968;-59
2023/03/12 03:01:15;;;;;;;;;;;;;;;2.71;79.63;94463.47;5156834;27;1045;-59
2023/03/12 03:03:41;;;;;;;;;;;;;;;2.79;78.96;94471.59;5156786;27;1041;-59
2023/03/12 03:06:07;;;;;;;;;;;;;;;2.49;79.64;94470.56;5156377;27;1049;-59
2023/03/12 03:08:33;;;;;;;;;;;;;;;2.42;80.77;94472.03;5156577;27;1024;-59
2023/03/12 03:11:01;;;;;;;;;;;;;;;2.45;80.69;94471.81;5152670;27;1339;-59
2023/03/12 03:13:28;;;;;;;;;;;;;;;2.61;80.16;94473.16;5135631;27;1012;-59
2023/03/12 03:15:56;;;;;;;;;;;;;;;2.76;79.06;94481.56;5135441;27;1980;-59
2023/03/12 03:18:25;;;;;;;;;;;;;;;2.84;80.02;94485.22;5135535;27;1001;-59
2023/03/12 03:20:58;;;;;;;;;;;;;;;2.87;78.76;94474.41;5135478;27;1032;-59
2023/03/12 03:23:24;;;;;;;;;;;;;;;2.85;78.83;94475.53;5117081;27;966;-59
2023/03/12 03:25:51;;;;;;;;;;;;;;;2.51;79.75;94479.19;5135604;27;1045;-58
2023/03/12 03:28:21;;;;;;;;;;;;;;;2.30;80.46;94481.00;5135412;27;1043;-59
2023/03/12 03:30:47;;;;;;;;;;;;;;;2.00;81.48;94485.19;5135410;27;1036;-59
2023/03/12 03:33:14;;;;;;;;;;;;;;;2.11;81.10;94495.69;5135209;27;1020;-59
2023/03/12 03:35:40;;;;;;;;;;;;;;;2.35;80.09;94502.53;5135343;27;1898;-59
2023/03/12 03:38:06;;;;;;;;;;;;;;;2.39;79.37;94493.44;5135091;27;1016;-59
2023/03/12 03:40:32;;;;;;;;;;;;;;;2.41;78.15;94495.91;5135248;27;1032;-59
2023/03/12 03:42:58;;;;;;;;;;;;;;;2.47;78.79;94498.91;5135141;27;1025;-59
2023/03/12 03:45:24;;;;;;;;;;;;;;;2.52;78.84;94509.06;5135143;27;960;-59
2023/03/12 03:47:51;;;;;;;;;;;;;;;2.54;79.47;94512.41;5134860;27;993;-59
2023/03/12 03:50:17;;;;;;;;;;;;;;;2.40;79.51;94516.19;5116688;27;973;-59
2023/03/12 03:52:43;;;;;;;;;;;;;;;2.19;79.93;94520.59;5134812;27;976;-59
2023/03/12 03:55:09;;;;;;;;;;;;;;;1.99;80.66;94527.50;5134658;27;1972;-59
2023/03/12 03:57:35;;;;;;;;;;;;;;;1.92;81.14;94524.53;5134825;27;969;-59
2023/03/12 04:00:01;;;;;;;;;;;;;;;2.01;80.87;94526.44;5134883;27;980;-59
2023/03/12 04:02:27;;;;;;;;;;;;;;;1.95;80.52;94535.66;5134753;27;1044;-59
2023/03/12 04:04:56;;;;;;;;;;;;;;;1.71;80.65;94532.38;5134756;27;1072;-59
2023/03/12 04:07:22;;;;;;;;;;;;;;;1.54;81.47;94541.59;5134447;27;1041;-59
2023/03/12 04:09:48;;;;;;;;;;;;;;;1.47;82.16;94535.97;5134510;27;996;-59
2023/03/12 04:12:14;;;;;;;;;;;;;;;1.48;82.51;94548.19;5148638;27;1275;-60
2023/03/12 04:14:41;;;;;;;;;;;;;;;1.56;82.57;94544.97;5155173;27;1049;-59
2023/03/12 04:17:07;;;;;;;;;;;;;;;1.59;81.98;94552.59;5154883;27;1976;-60
2023/03/12 04:19:33;;;;;;;;;;;;;;;1.48;82.62;94544.69;5155234;27;1023;-60
2023/03/12 04:21:59;;;;;;;;;;;;;;;1.33;82.78;94554.69;5154951;27;1057;-59
2023/03/12 04:24:26;;;;;;;;;;;;;;;1.26;82.87;94562.19;5155184;27;1016;-59
2023/03/12 04:26:52;;;;;;;;;;;;;;;1.23;82.93;94565.06;5154868;27;885;-59
2023/03/12 04:29:18;;;;;;;;;;;;;;;1.31;83.34;94565.31;5154850;27;1057;-59
2023/03/12 04:31:44;;;;;;;;;;;;;;;1.38;82.71;94573.56;5155217;27;1016;-60
2023/03/12 04:34:11;;;;;;;;;;;;;;;1.44;82.72;94580.16;5155161;27;984;-59
2023/03/12 04:36:37;;;;;;;;;;;;;;;1.63;83.34;94584.81;5154776;27;1996;-59
2023/03/12 04:39:06;;;;;;;;;;;;;;;1.79;82.18;94589.75;5154835;27;1098;-60
2023/03/12 04:41:33;;;;;;;;;;;;;;;2.02;81.27;94593.19;5154909;27;968;-60
2023/03/12 04:43:59;;;;;;;;;;;;;;;2.04;81.70;94594.72;5154842;27;1057;-59
2023/03/12 04:46:25;;;;;;;;;;;;;;;2.20;80.76;94590.84;5157725;27;957;-59
2023/03/12 04:48:51;;;;;;;;;;;;;;;2.19;79.73;94591.81;5159061;27;1154;-59
2023/03/12 04:51:17;;;;;;;;;;;;;;;2.12;80.31;94594.09;5159081;27;964;-60
2023/03/12 04:53:43;;;;;;;;;;;;;;;2.11;80.77;94600.34;5159060;27;1052;-60
2023/03/12 04:56:09;;;;;;;;;;;;;;;1.99;80.11;94599.50;5140647;27;2071;-60
2023/03/12 04:58:35;;;;;;;;;;;;;;;1.60;80.67;94614.06;5159441;27;1067;-60
2023/03/12 05:01:01;;;;;;;;;;;;;;;1.33;82.02;94612.63;5159075;27;980;-59
2023/03/12 05:03:27;;;;;;;;;;;;;;;1.62;80.92;94620.88;5158715;27;1049;-60
2023/03/12 05:05:53;;;;;;;;;;;;;;;2.08;79.39;94622.50;5158704;27;1060;-60
2023/03/12 05:08:19;;;;;;;;;;;;;;;2.57;75.55;94617.72;5158641;27;1211;-60
2023/03/12 05:10:45;;;;;;;;;;;;;;;2.90;72.84;94629.09;5156922;27;1291;-60
2023/03/12 05:13:13;;;;;;;;;;;;;;;2.91;72.08;94630.78;5119717;27;1041;-60
2023/03/12 05:15:39;;;;;;;;;;;;;;;3.26;70.45;94638.41;5137733;27;1975;-59
2023/03/12 05:18:05;;;;;;;;;;;;;;;3.41;69.90;94628.31;5137918;27;1035;-59
2023/03/12 05:20:31;;;;;;;;;;;;;;;3.43;69.29;94641.41;5137601;27;1056;-60
2023/03/12 05:22:57;;;;;;;;;;;;;;;3.48;70.01;94642.69;5138023;27;981;-60
2023/03/12 05:25:23;;;;;;;;;;;;;;;3.52;68.95;94652.03;5137788;27;969;-60
2023/03/12 05:27:49;;;;;;;;;;;;;;;3.69;69.03;94647.13;5137575;27;1045;-60
2023/03/12 05:30:15;;;;;;;;;;;;;;;3.68;67.74;94659.53;5137447;27;1100;-60
2023/03/12 05:32:41;;;;;;;;;;;;;;;3.81;69.57;94664.56;5137831;27;977;-60
2023/03/12 05:35:08;;;;;;;;;;;;;;;3.67;69.57;94668.41;5137562;27;1036;-59
2023/03/12 05:37:34;;;;;;;;;;;;;;;3.80;70.26;94673.50;5137587;27;1913;-59
2023/03/12 05:40:00;;;;;;;;;;;;;;;4.11;68.60;94682.25;5137290;27;1266;-60
2023/03/12 05:42:26;;;;;;;;;;;;;;;4.45;66.64;94686.41;5137479;27;1056;-60
2023/03/12 05:44:52;;;;;;;;;;;;;;;4.53;64.80;94683.91;5137446;27;1033;-60
2023/03/12 05:47:18;;;;;;;;;;;;;;;4.68;64.79;94693.13;5137173;27;1033;-60
2023/03/12 05:49:44;;;;;;;;;;;;;;;4.80;64.09;94695.66;5137224;27;1027;-59
2023/03/12 05:52:10;;;;;;;;;;;;;;;5.06;60.96;94693.34;5136965;27;1045;-59
2023/03/12 05:54:36;;;;;;;;;;;;;;;5.64;61.64;94697.78;5137146;27;1079;-59
2023/03/12 05:57:02;;;;;;;;;;;;;;;6.50;58.54;94696.84;5136999;27;1996;-59
2023/03/12 05:59:29;;;;;;;;;;;;;;;8.37;52.80;94711.97;5136761;27;1077;-60
2023/03/12 06:01:55;;;;;;;;;;;;;;;10.19;46.56;94725.53;5137228;27;984;-60
2023/03/12 06:04:21;;;;;;;;;;;;;;;12.28;40.05;94749.13;5136761;27;1035;-60
2023/03/12 06:06:47;;;;;;;;;;;;;;;13.88;37.08;94763.84;5137130;27;1096;-60
2023/03/12 06:09:13;;;;;;;;;;;;;;;14.66;34.89;94777.41;5137046;27;1149;-59
2023/03/12 06:11:39;;;;;;;;;;;;;;;15.98;33.46;94784.53;5146016;27;1318;-60
2023/03/12 06:14:05;;;;;;;;;;;;;;;16.57;32.51;94789.19;5157611;27;984;-60
2023/03/12 06:16:32;;;;;;;;;;;;;;;16.86;31.84;94792.53;5157146;27;1937;-60
2023/03/12 06:18:59;;;;;;;;;;;;;;;17.67;31.25;94801.31;5157633;27;1019;-60
2023/03/12 06:21:27;;;;;;;;;;;;;;;17.61;31.15;94799.47;5157207;27;960;-60
2023/03/12 06:23:53;;;;;;;;;;;;;;;17.59;30.68;94812.34;5157174;27;1104;-60
2023/03/12 06:26:20;;;;;;;;;;;;;;;17.02;31.85;94799.38;5157066;27;1096;-60
2023/03/12 06:28:46;;;;;;;;;;;;;;;15.98;33.39;94800.72;5157357;27;972;-60
2023/03/12 06:31:13;;;;;;;;;;;;;;;13.81;34.28;94799.56;5157063;27;1041;-60
2023/03/12 06:33:39;;;;;;;;;;;;;;;12.32;37.30;94779.91;5157085;27;1008;-59
2023/03/12 06:36:06;;;;;;;;;;;;;;;11.41;37.95;94776.16;5157202;27;1987;-59
2023/03/12 06:38:32;;;;;;;;;;;;;;;11.13;38.98;94771.25;5157192;27;1016;-60
2023/03/12 06:41:00;;;;;;;;;;;;;;;11.06;40.23;94770.25;5156865;27;1033;-60
2023/03/12 06:43:27;;;;;;;;;;;;;;;11.22;39.18;94770.22;5138656;27;946;-60
2023/03/12 06:45:54;;;;;;;;;;;;;;;11.24;38.60;94770.88;5138819;27;1043;-59
2023/03/12 06:48:21;;;;;;;;;;;;;;;11.26;39.30;94776.03;5138215;27;949;-60
2023/03/12 06:50:47;;;;;;;;;;;;;;;11.25;38.54;94790.41;5156762;27;1126;-60
2023/03/12 06:53:13;;;;;;;;;;;;;;;11.44;38.48;94784.66;5156595;27;999;-60
2023/03/12 06:55:39;;;;;;;;;;;;;;;11.70;37.79;94788.84;5156774;27;2000;-60
2023/03/12 06:58:06;;;;;;;;;;;;;;;11.59;37.95;94799.97;5156584;27;1104;-59
2023/03/12 07:00:32;;;;;;;;;;;;;;;11.75;37.50;94805.22;5156754;27;1069;-60
2023/03/12 07:02:58;;;;;;;;;;;;;;;11.67;37.84;94794.59;5156731;27;973;-60
2023/03/12 07:05:24;;;;;;;;;;;;;;;11.68;37.33;94802.41;5156602;27;1047;-60
2023/03/12 07:07:51;;;;;;;;;;;;;;;11.79;36.95;94805.72;5156158;27;999;-60
2023/03/12 07:10:17;;;;;;;;;;;;;;;11.76;37.82;94800.69;5156066;27;1048;-62
2023/03/12 07:12:44;;;;;;;;;;;;;;;11.57;38.32;94792.09;5138033;27;1603;-61
2023/03/12 07:15:11;;;;;;;;;;;;;;;11.76;37.33;94803.38;5135178;27;1321;-61
2023/03/12 07:17:38;;;;;;;;;;;;;;;11.62;37.00;94804.97;5135665;27;1959;-59
2023/03/12 07:20:04;;;;;;;;;;;;;;;11.68;37.29;94801.59;5117112;27;1018;-58
2023/03/12 07:22:31;;;;;;;;;;;;;;;12.19;35.71;94801.13;5117045;27;1065;-59
2023/03/12 07:24:58;;;;;;;;;;;;;;;12.06;36.78;94799.84;5117021;27;1064;-59
2023/03/12 07:27:24;;;;;;;;;;;;;;;12.55;36.17;94808.53;5135319;27;1004;-59
2023/03/12 07:29:51;;;;;;;;;;;;;;;12.76;35.74;94805.13;5117087;27;1116;-59
2023/03/12 07:32:18;;;;;;;;;;;;;;;12.78;36.29;94806.59;5135271;27;1035;-59
2023/03/12 07:34:44;;;;;;;;;;;;;;;12.53;35.71;94811.38;5135232;27;1081;-59
2023/03/12 07:37:11;;;;;;;;;;;;;;;12.80;37.35;94803.75;5135044;27;1902;-59
2023/03/12 07:39:38;;;;;;;;;;;;;;;13.25;36.43;94805.44;5116943;27;1065;-59
2023/03/12 07:42:04;;;;;;;;;;;;;;;13.39;33.22;94814.53;5135126;27;1095;-59
2023/03/12 07:44:32;;;;;;;;;;;;;;;13.32;34.42;94812.75;5135234;27;1279;-59
2023/03/12 07:46:59;;;;;;;;;;;;;;;13.38;35.54;94802.13;5135050;27;1112;-59
2023/03/12 07:49:26;;;;;;;;;;;;;;;13.29;34.56;94804.03;5117103;27;1047;-58
2023/03/12 07:51:53;;;;;;;;;;;;;;;13.28;34.79;94804.25;5134952;27;1049;-59
2023/03/12 07:54:24;;;;;;;;;;;;;;;13.24;33.82;94814.53;5134690;27;1061;-59
2023/03/12 07:56:51;;;;;;;;;;;;;;;13.38;33.55;94810.19;5134906;27;1909;-59
2023/03/12 07:59:18;;;;;;;;;;;;;;;13.24;34.43;94813.66;5134670;27;1045;-59
2023/03/12 08:01:44;;;;;;;;;;;;;;;13.00;32.67;94810.25;5134716;27;1076;-59
2023/03/12 08:04:11;;;;;;;;;;;;;;;13.34;34.44;94808.88;5134547;27;1115;-59
2023/03/12 08:06:41;;;;;;;;;;;;;;;12.80;33.38;94812.63;5134669;27;1057;-59
2023/03/12 08:09:08;;;;;;;;;;;;;;;12.89;34.96;94811.53;5134676;27;1057;-59
2023/03/12 08:11:36;;;;;;;;;;;;;;;12.78;33.05;94813.84;5142962;27;1540;-58
2023/03/12 08:14:03;;;;;;;;;;;;;;;13.00;33.49;94814.78;5155100;27;1111;-59
2023/03/12 08:16:29;;;;;;;;;;;;;;;13.31;34.75;94814.63;5155063;27;1909;-58
2023/03/12 08:18:55;;;;;;;;;;;;;;;13.27;33.40;94811.44;5155416;27;1048;-58
2023/03/12 08:21:22;;;;;;;;;;;;;;;13.19;32.19;94824.97;5154606;27;981;-57
2023/03/12 08:23:48;;;;;;;;;;;;;;;13.25;32.47;94820.72;5136629;27;1065;-58
2023/03/12 08:26:15;;;;;;;;;;;;;;;13.01;32.55;94827.19;5136542;27;1395;-58
2023/03/12 08:28:42;;;;;;;;;;;;;;;12.93;32.48;94841.50;5136761;27;1092;-57
2023/03/12 08:31:08;;;;;;;;;;;;;;;13.25;32.00;94839.50;5136799;27;1037;-57
2023/03/12 08:33:35;;;;;;;;;;;;;;;13.20;33.87;94840.06;5154964;27;1104;-58
2023/03/12 08:36:01;;;;;;;;;;;;;;;13.14;32.01;94837.28;5154821;27;1992;-57
2023/03/12 08:38:28;;;;;;;;;;;;;;;13.28;33.12;94831.91;5154831;27;991;-58
2023/03/12 08:40:55;;;;;;;;;;;;;;;13.39;31.63;94827.97;5154951;27;988;-57
2023/03/12 08:43:22;;;;;;;;;;;;;;;13.63;32.32;94834.03;5154772;27;1101;-58
2023/03/12 08:45:56;;;;;;;;;;;;;;;13.73;32.09;94845.31;5155123;27;1028;-58
2023/03/12 08:48:22;;;;;;;;;;;;;;;13.55;31.96;94842.22;5155043;27;992;-58
2023/03/12 08:50:49;;;;;;;;;;;;;;;13.56;32.75;94850.06;5154969;27;1103;-58
2023/03/12 08:53:16;;;;;;;;;;;;;;;13.71;31.04;94854.59;5136436;27;1505;-58
2023/03/12 08:55:44;;;;;;;;;;;;;;;13.59;31.71;94849.69;5154829;27;1914;-58
2023/03/12 08:58:11;;;;;;;;;;;;;;;13.63;30.98;94852.84;5154581;27;1040;-58
2023/03/12 09:00:37;;;;;;;;;;;;;;;13.42;32.04;94849.06;5154955;27;1051;-58
2023/03/12 09:03:03;;;;;;;;;;;;;;;13.63;31.05;94856.34;5154652;27;1115;-58
2023/03/12 09:05:30;;;;;;;;;;;;;;;13.41;30.21;94852.78;5154523;27;1148;-58
2023/03/12 09:07:56;;;;;;;;;;;;;;;13.57;29.94;94858.97;5135722;27;1073;-58
2023/03/12 09:10:23;;;;;;;;;;;;;;;13.95;32.06;94848.91;5154611;27;1059;-59
2023/03/12 09:12:49;;;;;;;;;;;;;;;14.03;30.51;94862.22;5116990;28;1346;-58
2023/03/12 09:15:15;;;;;;;;;;;;;;;13.55;31.48;94856.47;5115461;28;1103;-59
2023/03/12 09:17:42;;;;;;;;;;;;;;;14.16;31.63;94858.84;5133935;28;1901;-59
2023/03/12 09:20:12;;;;;;;;;;;;;;;14.18;31.10;94855.97;5133801;28;981;-59
2023/03/12 09:22:40;;;;;;;;;;;;;;;14.17;31.16;94862.34;5133831;28;1113;-59
2023/03/12 09:25:08;;;;;;;;;;;;;;;14.70;31.25;94864.78;5133851;28;1027;-59
2023/03/12 09:27:37;;;;;;;;;;;;;;;14.33;30.72;94864.81;5133642;28;1081;-59
2023/03/12 09:30:05;;;;;;;;;;;;;;;14.39;30.39;94855.97;5133672;28;1069;-59
2023/03/12 09:32:31;;;;;;;;;;;;;;;14.58;31.25;94859.91;5136683;27;1217;-59
2023/03/12 09:34:58;;;;;;;;;;;;;;;14.68;31.85;94859.56;5137611;27;1052;-58
2023/03/12 09:37:24;;;;;;;;;;;;;;;14.82;29.46;94863.25;5137275;27;1985;-59
2023/03/12 09:39:50;;;;;;;;;;;;;;;14.18;28.69;94861.34;5137637;27;1024;-60
2023/03/12 09:42:22;;;;;;;;;;;;;;;13.67;31.54;94856.81;5137342;27;1592;-61
2023/03/12 09:44:49;;;;;;;;;;;;;;;14.22;32.17;94855.38;5137768;27;1028;-60
2023/03/12 09:47:24;;;;;;;;;;;;;;;14.30;31.91;94861.66;5137707;27;1016;-59
2023/03/12 09:49:53;;;;;;;;;;;;;;;14.04;32.44;94860.38;5137434;27;1055;-60
2023/03/12 09:52:31;;;;;;;;;;;;;;;13.59;31.19;94852.38;5118906;27;1037;-60
2023/03/12 09:55:07;;;;;;;;;;;;;;;13.63;32.87;94855.53;5137166;27;1112;-59
2023/03/12 09:57:33;;;;;;;;;;;;;;;14.08;31.26;94858.97;5137209;27;1984;-62
2023/03/12 09:59:59;;;;;;;;;;;;;;;14.12;31.15;94865.63;5137024;27;1048;-62
2023/03/12 10:02:41;;;;;;;;;;;;;;;14.00;29.83;94867.13;5118726;27;1116;-62
2023/03/12 10:05:33;;;;;;;;;;;;;;;14.04;30.84;94865.75;5136979;27;1045;-61
2023/03/12 10:08:03;;;;;;;;;;;;;;;14.10;31.91;94856.09;5132357;27;1209;-61
2023/03/12 10:10:48;;;;;;;;;;;;;;;14.57;29.45;94857.41;5136991;27;957;-62
2023/03/12 10:13:21;;;;;;;;;;;;;;;14.44;29.35;94860.78;5136586;27;1057;-62
2023/03/12 10:16:00;;;;;;;;;;;;;;;14.48;29.08;94853.19;5118521;27;1910;-60
2023/03/12 10:18:45;;;;;;;;;;;;;;;14.05;30.08;94860.16;5136563;27;1049;-61
2023/03/12 10:21:14;;;;;;;;;;;;;;;13.88;30.43;94849.84;5136572;27;1053;-62
2023/03/12 10:23:40;;;;;;;;;;;;;;;14.12;29.31;94857.56;5136530;27;1053;-62
2023/03/12 10:26:12;;;;;;;;;;;;;;;14.08;29.21;94856.28;5136489;27;1061;-61
2023/03/12 10:28:41;;;;;;;;;;;;;;;13.94;28.60;94859.84;5136314;27;976;-62
2023/03/12 10:31:17;;;;;;;;;;;;;;;13.82;28.33;94862.19;5136359;27;937;-62
2023/03/12 10:33:52;;;;;;;;;;;;;;;13.62;28.62;94862.78;5136676;27;1116;-61
2023/03/12 10:36:21;;;;;;;;;;;;;;;13.45;28.97;94858.63;5117799;27;1994;-61
2023/03/12 10:38:48;;;;;;;;;;;;;;;13.50;28.86;94864.25;5136046;27;1093;-60
2023/03/12 10:41:15;;;;;;;;;;;;;;;12.97;28.18;94856.22;5136304;27;957;-61
2023/03/12 10:43:42;;;;;;;;;;;;;;;13.24;28.99;94846.72;5135168;27;1061;-60
2023/03/12 10:46:27;;;;;;;;;;;;;;;13.40;28.94;94850.28;5136332;27;984;-61
2023/03/12 10:49:13;;;;;;;;;;;;;;;13.44;27.89;94838.97;5135952;27;1062;-61
2023/03/12 10:51:56;;;;;;;;;;;;;;;13.60;30.24;94837.94;5135934;27;1091;-61
2023/03/12 10:54:27;;;;;;;;;;;;;;;13.83;29.83;94837.00;5135961;27;1031;-61
2023/03/12 10:56:53;;;;;;;;;;;;;;;13.72;29.89;94832.09;5135861;27;1978;-61
2023/03/12 10:59:20;;;;;;;;;;;;;;;13.66;31.27;94833.69;5117512;27;1038;-61
2023/03/12 11:01:50;;;;;;;;;;;;;;;13.18;28.14;94827.84;5135738;27;1065;-61
2023/03/12 11:04:46;;;;;;;;;;;;;;;13.20;30.80;94823.09;5135861;27;1028;-61
2023/03/12 11:07:15;;;;;;;;;;;;;;;13.30;30.31;94818.34;5107309;27;1318;-62
2023/03/12 11:09:41;;;;;;;;;;;;;;;13.44;29.46;94814.78;5135872;27;985;-62
2023/03/12 11:12:24;;;;;;;;;;;;;;;13.42;30.08;94816.84;5130729;27;1303;-61
2023/03/12 11:14:50;;;;;;;;;;;;;;;13.26;30.70;94822.34;5156095;27;1569;-62
2023/03/12 11:17:21;;;;;;;;;;;;;;;13.19;30.41;94824.97;5156224;27;2002;-63
2023/03/12 11:19:47;;;;;;;;;;;;;;;12.83;29.12;94824.84;5156260;27;1632;-62
2023/03/12 11:22:25;;;;;;;;;;;;;;;13.11;30.22;94826.91;5156217;27;977;-62
2023/03/12 11:24:55;;;;;;;;;;;;;;;13.07;28.94;94821.06;5156394;27;976;-62
2023/03/12 11:27:40;;;;;;;;;;;;;;;13.09;29.82;94811.81;5137549;27;1060;-61
2023/03/12 11:30:10;;;;;;;;;;;;;;;12.78;30.13;94822.69;5137898;27;984;-61
2023/03/12 11:32:43;;;;;;;;;;;;;;;12.60;29.46;94815.00;5155933;27;1112;-61
2023/03/12 11:35:11;;;;;;;;;;;;;;;12.76;29.39;94822.06;5155902;27;1076;-61
2023/03/12 11:37:52;;;;;;;;;;;;;;;12.67;28.62;94815.09;5155723;27;1910;-61
2023/03/12 11:40:27;;;;;;;;;;;;;;;12.32;29.29;94808.56;5156201;27;1306;-62
2023/03/12 11:43:02;;;;;;;;;;;;;;;12.14;29.45;94807.03;5155809;27;1044;-62
2023/03/12 11:45:36;;;;;;;;;;;;;;;12.16;29.41;94807.69;5155545;27;1048;-61
2023/03/12 11:48:05;;;;;;;;;;;;;;;12.46;28.90;94811.28;5155972;27;1340;-62
2023/03/12 11:50:31;;;;;;;;;;;;;;;12.38;28.83;94814.03;5155523;27;1037;-60
2023/03/12 11:53:05;;;;;;;;;;;;;;;12.06;29.45;94809.75;5155351;27;1061;-61
2023/03/12 11:55:34;;;;;;;;;;;;;;;12.02;28.63;94803.91;5155289;27;1909;-61
2023/03/12 11:58:06;;;;;;;;;;;;;;;11.90;29.83;94806.16;5155309;27;1140;-61
2023/03/12 12:00:36;;;;;;;;;;;;;;;12.02;29.41;94803.09;5155611;27;964;-61
2023/03/12 12:03:11;;;;;;;;;;;;;;;12.20;29.19;94795.59;5156013;27;969;-61
2023/03/12 12:05:40;;;;;;;;;;;;;;;12.23;30.18;94803.25;5155335;27;1037;-61
2023/03/12 12:08:15;;;;;;;;;;;;;;;12.19;29.72;94799.25;5136823;27;1027;-61
2023/03/12 12:10:44;;;;;;;;;;;;;;;12.20;31.16;94798.25;5154370;27;1112;-62
2023/03/12 12:13:23;;;;;;;;;;;;;;;12.10;29.88;94801.19;5134357;27;1038;-62
2023/03/12 12:15:59;;;;;;;;;;;;;;;12.11;29.83;94791.28;5116160;27;1986;-62
2023/03/12 12:18:47;;;;;;;;;;;;;;;12.15;29.86;94791.78;5134666;27;972;-61
2023/03/12 12:21:32;;;;;;;;;;;;;;;12.25;29.45;94787.81;5116340;27;973;-62
2023/03/12 12:24:16;;;;;;;;;;;;;;;12.35;30.05;94778.69;5134297;27;1045;-62
2023/03/12 12:26:45;;;;;;;;;;;;;;;12.01;28.77;94793.34;5134661;27;996;-62
2023/03/12 12:29:23;;;;;;;;;;;;;;;11.78;29.90;94786.16;5134338;27;996;-61
2023/03/12 12:31:56;;;;;;;;;;;;;;;11.85;30.37;94786.25;5134239;27;1053;-62
2023/03/12 12:34:32;;;;;;;;;;;;;;;11.99;29.62;94795.38;5141341;27;1040;-62
2023/03/12 12:37:10;;;;;;;;;;;;;;;12.15;29.41;94787.25;5154735;27;1905;-62
2023/03/12 12:39:41;;;;;;;;;;;;;;;12.21;29.96;94797.22;5154876;27;1100;-62
2023/03/12 12:42:12;;;;;;;;;;;;;;;12.22;29.85;94803.44;5155137;27;1039;-61
2023/03/12 12:44:49;;;;;;;;;;;;;;;12.04;29.85;94787.66;5154937;27;1115;-60
2023/03/12 12:47:18;;;;;;;;;;;;;;;12.03;30.98;94792.19;5149675;27;1162;-61
2023/03/12 12:49:50;;;;;;;;;;;;;;;12.05;29.98;94789.34;5154498;27;1213;-61
2023/03/12 12:52:20;;;;;;;;;;;;;;;11.86;29.96;94802.16;5154445;27;1195;-61
2023/03/12 12:54:47;;;;;;;;;;;;;;;11.76;31.18;94800.69;5155031;27;1023;-62
2023/03/12 12:57:15;;;;;;;;;;;;;;;11.79;30.73;94801.19;5154557;27;1980;-62
2023/03/12 12:59:49;;;;;;;;;;;;;;;11.77;29.85;94800.53;5136486;27;1037;-62
2023/03/12 13:02:20;;;;;;;;;;;;;;;11.64;30.73;94803.78;5154638;27;1040;-61
2023/03/12 13:04:47;;;;;;;;;;;;;;;11.64;30.02;94803.78;5154809;27;988;-62
2023/03/12 13:07:13;;;;;;;;;;;;;;;11.52;30.80;94800.69;5156882;27;1115;-62
2023/03/12 13:09:42;;;;;;;;;;;;;;;11.50;32.23;94804.53;5142250;27;1039;-61